Tigard, Oregon
Current Conditions -  °F | °C
As of 11:53 PM on Thursday 30 Oct 2014 (Local Time) from KHIO Reporting Station
Light Rain Light Rain  
Wind Chill: 57°   Ceiling: 6500
Heat Index: 57°   Visibility: 6mi
Dew Point: 56°   Wind: 7mph
Humidity: 96%   Direction: 130°SE
Pressure: 29.77"   Gusts: NA
Location:  45.43°N, 122.76°W
Report Text: KHIO 310653Z AUTO 13006KT 6SM -RA BR OVC065 14/13 A2977 RMK AO2 SLP078 P0008 T01390133 TSNO
Loading
Personal Weather Stations






























Interactive Weather Map
Tropical Storm Tracking
New forecast layout! Learn more

10-Day Weather Forecast

Advertisements
Track Severe Weather on mobile